KFME/FME METAR and TAF weather

Enter ICAO airport designator
Station Type Date Time Source
KFME METAR 2020/04/05 19:45 UTC NOAA

KFME 051945Z AUTO 19003KT 10SM SCT100 SCT120 18/06 A3004 RMK AO1


Station Type Date Time Source
KFME Decoded METAR 2020/04/05 19:45 UTC NOAA

Fort Meade / Tipton, MD, United States (KFME) 39-05N 076-46W
Apr 05, 2020 - 03:45 PM EDT / 2020.04.05 1945 UTC
Wind: from the S (190 degrees) at 3 MPH (3 KT):0
Visibility: 10 mile(s):0
Sky conditions: partly cloudy
Temperature: 64 F (18 C)
Dew Point: 42 F (6 C)
Relative Humidity: 45%
Pressure (altimeter): 30.04 in. Hg (1017 hPa)
ob: KFME 051945Z AUTO 19003KT 10SM SCT100 SCT120 18/06 A3004 RMK AO1
cycle: 20

Station Type Date Time Source
KFME TAF UTC NOAA

Error!

Example: see airport list